Time;durP1;ratioP1;P1;durP2;ratioP2;P2;SDS_P1;SDS_P2;PMS_P1;PMS_P2;Temp;Humidity;BMP_temperature;BMP_pressure;BME280_temperature;BME280_humidity;BME280_pressure;Samples;Min_cycle;Max_cycle;Signal;HPM_P1;HPM_P2
2023/06/17 00:01:48;;;;;;;5.45;3.65;;;15.00;99.90;;;;;;6108203;23;20065;-67
2023/06/17 00:04:14;;;;;;;3.63;3.20;;;15.00;99.90;;;;;;6077137;23;20054;-67
2023/06/17 00:06:40;;;;;;;3.53;3.20;;;15.00;99.90;;;;;;6107667;23;20016;-66
2023/06/17 00:09:06;;;;;;;4.30;3.10;;;14.90;99.90;;;;;;6102127;23;20016;-67
2023/06/17 00:11:32;;;;;;;5.80;3.63;;;14.90;99.90;;;;;;6108781;23;20064;-66
2023/06/17 00:14:00;;;;;;;4.05;3.50;;;14.80;99.90;;;;;;6083594;23;20436;-66
2023/06/17 00:16:26;;;;;;;5.07;3.05;;;14.80;99.90;;;;;;6082180;23;20124;-67
2023/06/17 00:18:53;;;;;;;3.78;3.42;;;14.80;99.90;;;;;;6107253;23;20052;-66
2023/06/17 00:21:19;;;;;;;3.85;3.30;;;14.70;99.90;;;;;;6107936;23;20026;-66
2023/06/17 00:23:45;;;;;;;5.82;3.28;;;14.70;99.90;;;;;;6109914;23;20458;-66
2023/06/17 00:26:11;;;;;;;3.17;2.88;;;14.70;99.90;;;;;;6106796;23;20009;-66
2023/06/17 00:28:36;;;;;;;2.95;2.75;;;14.60;99.90;;;;;;6108314;23;20401;-69
2023/06/17 00:31:02;;;;;;;3.30;3.00;;;14.50;99.90;;;;;;6108576;23;20032;-69
2023/06/17 00:33:27;;;;;;;2.95;2.75;;;14.40;99.90;;;;;;6107855;23;20002;-69
2023/06/17 00:35:53;;;;;;;4.55;3.10;;;14.30;99.90;;;;;;6107090;23;20498;-69
2023/06/17 00:38:19;;;;;;;5.28;3.08;;;14.30;99.90;;;;;;6107267;23;20002;-69
2023/06/17 00:40:44;;;;;;;4.95;3.35;;;14.30;99.90;;;;;;6107473;23;20014;-69
2023/06/17 00:43:10;;;;;;;9.32;3.35;;;14.30;99.90;;;;;;6106438;23;20001;-69
2023/06/17 00:45:38;;;;;;;4.57;2.90;;;14.30;99.90;;;;;;6108233;23;20459;-70
2023/06/17 00:48:07;;;;;;;5.13;3.28;;;14.30;99.90;;;;;;6104913;23;20033;-66
2023/06/17 00:50:33;;;;;;;3.63;3.33;;;14.20;99.90;;;;;;6107771;23;20006;-66
2023/06/17 00:52:59;;;;;;;3.67;3.33;;;14.20;99.90;;;;;;6106024;23;20033;-66
2023/06/17 00:55:26;;;;;;;3.55;3.25;;;14.30;99.90;;;;;;6108586;23;20487;-66
2023/06/17 00:57:53;;;;;;;3.75;3.30;;;14.30;99.90;;;;;;6110793;23;20014;-66
2023/06/17 01:00:18;;;;;;;4.93;3.17;;;14.30;99.90;;;;;;6111011;23;20010;-66
2023/06/17 01:02:46;;;;;;;6.55;2.97;;;14.20;99.90;;;;;;6109589;23;20442;-66
2023/06/17 01:05:14;;;;;;;3.38;3.08;;;14.30;99.90;;;;;;6110066;23;19998;-66
2023/06/17 01:07:57;;;;;;;4.75;3.15;;;14.20;99.90;;;;;;6109114;23;20041;-66
2023/06/17 01:11:13;;;;;;;4.55;2.70;;;14.20;99.90;;;;;;6110619;23;20478;-67
2023/06/17 01:13:42;;;;;;;3.92;2.90;;;14.00;99.90;;;;;;5963749;24;20015;-66
2023/06/17 01:16:08;;;;;;;4.53;2.63;;;14.00;99.90;;;;;;6084101;23;20028;-66
2023/06/17 01:18:36;;;;;;;3.50;2.75;;;13.90;99.90;;;;;;6111604;23;20044;-66
2023/06/17 01:21:03;;;;;;;4.65;3.42;;;14.00;99.90;;;;;;6113491;23;20169;-66
2023/06/17 01:23:37;;;;;;;6.05;3.33;;;14.00;99.90;;;;;;6110866;23;20805;-66
2023/06/17 01:26:05;;;;;;;6.75;3.20;;;14.00;99.90;;;;;;6112064;23;20010;-66
2023/06/17 01:28:31;;;;;;;5.38;3.20;;;14.00;99.90;;;;;;6109772;23;20278;-66
2023/06/17 01:30:57;;;;;;;5.15;3.20;;;14.00;99.90;;;;;;6111029;23;20014;-66
2023/06/17 01:33:25;;;;;;;4.53;2.85;;;14.00;99.90;;;;;;6111049;23;20416;-66
2023/06/17 01:36:02;;;;;;;5.03;2.65;;;13.90;99.90;;;;;;6108962;23;20005;-67
2023/06/17 01:38:41;;;;;;;4.38;2.67;;;13.80;99.90;;;;;;6112328;23;20016;-66
2023/06/17 01:41:13;;;;;;;5.55;3.00;;;13.80;99.90;;;;;;6111524;23;20014;-66
2023/06/17 01:43:40;;;;;;;;;;;13.80;99.90;;;;;;6112029;23;20002;-66
2023/06/17 01:46:07;;;;;;;4.78;2.67;;;13.80;99.90;;;;;;6111803;23;19928;-66
2023/06/17 01:48:33;;;;;;;3.60;3.30;;;13.70;99.90;;;;;;6112255;23;20152;-66
2023/06/17 01:50:59;;;;;;;9.25;3.67;;;13.60;99.90;;;;;;6084911;23;20014;-66
2023/06/17 01:53:24;;;;;;;6.43;3.35;;;13.60;99.90;;;;;;6111766;23;20682;-66
2023/06/17 01:55:51;;;;;;;3.38;3.08;;;13.60;99.90;;;;;;6106334;23;20455;-66
2023/06/17 01:58:16;;;;;;;4.45;3.13;;;13.60;99.90;;;;;;6111354;23;20053;-66
2023/06/17 02:00:42;;;;;;;4.32;3.17;;;13.60;99.90;;;;;;6108974;23;20783;-66
2023/06/17 02:03:08;;;;;;;8.40;3.80;;;13.60;99.90;;;;;;6110151;23;20044;-66
2023/06/17 02:05:33;;;;;;;3.53;3.13;;;13.50;99.90;;;;;;6110372;23;20105;-66
2023/06/17 02:08:05;;;;;;;4.03;3.53;;;13.50;99.90;;;;;;6111134;23;20482;-66
2023/06/17 02:10:31;;;;;;;5.63;3.15;;;13.50;99.90;;;;;;6110628;23;20010;-66
2023/06/17 02:12:57;;;;;;;9.52;3.08;;;13.50;99.90;;;;;;6112318;23;20014;-67
2023/06/17 02:15:22;;;;;;;2.90;2.70;;;13.60;99.90;;;;;;6109874;23;20836;-66
2023/06/17 02:17:48;;;;;;;3.22;2.90;;;13.60;99.90;;;;;;6111347;23;20013;-66
2023/06/17 02:20:14;;;;;;;3.13;2.72;;;13.50;99.90;;;;;;6111276;23;20012;-66
2023/06/17 02:22:40;;;;;;;3.00;2.70;;;13.40;99.90;;;;;;6111071;23;20025;-66
2023/06/17 02:25:07;;;;;;;4.50;2.65;;;13.30;99.90;;;;;;6107023;23;20090;-66
2023/06/17 02:27:33;;;;;;;6.63;2.50;;;13.20;99.90;;;;;;6111804;23;20660;-66
2023/06/17 02:29:58;;;;;;;3.40;3.08;;;13.20;99.90;;;;;;6112200;23;20077;-66
2023/06/17 02:32:24;;;;;;;3.35;2.97;;;13.20;99.90;;;;;;6111011;23;20117;-67
2023/06/17 02:34:50;;;;;;;4.70;3.10;;;13.20;99.90;;;;;;6107703;23;20052;-66
2023/06/17 02:37:16;;;;;;;3.63;2.58;;;13.30;99.90;;;;;;6109324;23;20576;-69
2023/06/17 02:39:42;;;;;;;4.47;3.00;;;13.30;99.90;;;;;;6111443;23;20010;-70
2023/06/17 02:42:08;;;;;;;4.68;3.00;;;13.30;99.90;;;;;;6108751;23;20025;-69
2023/06/17 02:44:35;;;;;;;2.60;2.40;;;13.30;99.90;;;;;;6110075;23;20664;-69
2023/06/17 02:47:01;;;;;;;2.78;2.53;;;13.30;99.90;;;;;;6110470;23;20041;-69
2023/06/17 02:49:27;;;;;;;3.83;3.15;;;13.30;99.90;;;;;;6110024;23;20029;-69
2023/06/17 02:51:52;;;;;;;7.25;3.50;;;13.30;99.90;;;;;;6111788;23;20005;-69
2023/06/17 02:54:18;;;;;;;3.38;3.08;;;13.30;99.90;;;;;;6110411;23;20002;-69
2023/06/17 02:56:44;;;;;;;3.60;2.90;;;13.40;99.90;;;;;;6109794;23;20375;-69
2023/06/17 02:59:10;;;;;;;4.57;3.53;;;13.40;99.90;;;;;;6111066;23;20006;-69
2023/06/17 03:01:42;;;;;;;4.82;3.20;;;13.50;99.90;;;;;;6110279;23;20014;-70
2023/06/17 03:04:10;;;;;;;4.45;3.28;;;13.50;99.90;;;;;;6111141;23;20010;-69
2023/06/17 03:06:37;;;;;;;5.00;2.20;;;13.50;99.90;;;;;;6111924;23;20017;-69
2023/06/17 03:09:05;;;;;;;2.90;2.53;;;13.40;99.90;;;;;;6111685;23;20420;-70
2023/06/17 03:11:30;;;;;;;3.38;2.50;;;13.30;99.90;;;;;;6111233;23;20013;-70
2023/06/17 03:13:56;;;;;;;4.00;3.17;;;13.20;99.90;;;;;;6110723;23;20791;-69
2023/06/17 03:16:25;;;;;;;3.15;2.85;;;13.20;99.90;;;;;;6111176;23;20017;-69
2023/06/17 03:18:51;;;;;;;3.90;3.25;;;13.10;99.90;;;;;;6110914;23;20029;-69
2023/06/17 03:21:17;;;;;;;5.57;3.30;;;13.10;99.90;;;;;;6110573;23;20140;-69
2023/06/17 03:23:42;;;;;;;5.70;2.95;;;13.00;99.90;;;;;;6113403;23;20013;-69
2023/06/17 03:26:11;;;;;;;4.28;3.17;;;13.00;99.90;;;;;;6108799;23;20006;-69
2023/06/17 03:28:37;;;;;;;4.05;3.67;;;13.00;99.90;;;;;;6110756;23;20006;-69
2023/06/17 03:31:03;;;;;;;5.65;3.50;;;13.00;99.90;;;;;;6108927;23;20049;-69
2023/06/17 03:33:29;;;;;;;3.45;3.00;;;13.10;99.90;;;;;;6084299;23;20012;-69
2023/06/17 03:35:55;;;;;;;5.88;4.05;;;13.10;99.90;;;;;;6110387;23;20013;-70
2023/06/17 03:38:21;;;;;;;6.30;3.78;;;13.20;99.90;;;;;;6110831;23;20006;-69
2023/06/17 03:40:47;;;;;;;4.00;3.38;;;13.20;99.90;;;;;;6108979;23;20529;-69
2023/06/17 03:43:13;;;;;;;6.63;3.47;;;13.20;99.90;;;;;;6111943;23;20002;-69
2023/06/17 03:45:39;;;;;;;4.95;3.15;;;13.30;99.90;;;;;;6109495;23;20010;-69
2023/06/17 03:48:05;;;;;;;4.57;3.17;;;13.40;99.90;;;;;;6096353;23;20757;-69
2023/06/17 03:50:31;;;;;;;5.35;3.70;;;13.50;99.90;;;;;;6110863;23;20010;-70
2023/06/17 03:52:58;;;;;;;4.57;4.07;;;13.50;99.90;;;;;;6108578;23;20640;-69
2023/06/17 03:55:24;;;;;;;7.45;3.90;;;13.60;99.90;;;;;;6107370;23;20100;-69
2023/06/17 03:57:50;;;;;;;5.85;3.30;;;13.60;99.90;;;;;;6112214;23;20002;-69
2023/06/17 04:00:16;;;;;;;6.22;3.25;;;13.70;99.90;;;;;;6108116;23;20002;-69
2023/06/17 04:02:45;;;;;;;4.78;3.35;;;13.80;99.90;;;;;;6110233;23;20018;-69
2023/06/17 04:05:15;;;;;;;4.32;3.08;;;13.70;99.90;;;;;;6107375;23;20014;-69
2023/06/17 04:07:42;;;;;;;4.85;3.40;;;13.70;99.90;;;;;;6109950;23;20009;-69
2023/06/17 04:10:08;;;;;;;3.72;3.42;;;13.70;99.90;;;;;;6106160;23;20026;-69
2023/06/17 04:12:37;;;;;;;8.60;3.85;;;13.70;99.90;;;;;;6108421;23;20010;-69
2023/06/17 04:15:07;;;;;;;5.43;3.25;;;13.60;99.90;;;;;;6107257;23;20696;-70
2023/06/17 04:17:34;;;;;;;4.63;3.35;;;13.70;99.90;;;;;;6111058;23;20092;-68
2023/06/17 04:20:10;;;;;;;5.05;3.60;;;13.90;99.90;;;;;;6108164;23;20009;-67
2023/06/17 04:22:39;;;;;;;12.77;4.63;;;13.90;99.90;;;;;;6111025;23;20018;-68
2023/06/17 04:25:06;;;;;;;9.43;3.90;;;14.00;99.90;;;;;;6110654;23;20316;-68
2023/06/17 04:27:32;;;;;;;12.38;4.60;;;14.20;99.90;;;;;;6109756;23;20729;-67
2023/06/17 04:29:57;;;;;;;5.60;3.30;;;14.30;99.90;;;;;;6109558;23;20092;-67
2023/06/17 04:32:26;;;;;;;4.45;3.67;;;14.50;99.90;;;;;;6110652;23;20427;-68
2023/06/17 04:34:52;;;;;;;7.40;4.13;;;14.60;99.90;;;;;;6108510;23;20010;-67
2023/06/17 04:37:18;;;;;;;8.20;4.32;;;14.70;99.90;;;;;;6109484;23;20010;-67
2023/06/17 04:39:44;;;;;;;5.00;3.97;;;14.80;99.90;;;;;;6110009;23;20595;-67
2023/06/17 04:42:10;;;;;;;5.57;5.07;;;14.90;99.90;;;;;;6110922;23;20018;-67
2023/06/17 04:44:39;;;;;;;8.65;4.18;;;15.00;99.90;;;;;;6110149;23;19998;-67
2023/06/17 04:47:11;;;;;;;10.40;4.30;;;15.10;99.90;;;;;;6110193;23;20427;-66
2023/06/17 04:49:41;;;;;;;5.18;4.18;;;15.30;99.90;;;;;;6108923;23;20511;-66
2023/06/17 04:52:13;;;;;;;6.18;4.00;;;15.40;99.90;;;;;;6110642;23;20214;-65
2023/06/17 04:54:40;;;;;;;6.65;4.80;;;15.50;99.90;;;;;;6111050;23;20022;-66
2023/06/17 04:57:08;;;;;;;10.43;5.82;;;15.70;99.90;;;;;;6109123;23;20005;-63
2023/06/17 04:59:34;;;;;;;5.30;4.22;;;15.80;99.90;;;;;;6109443;23;20077;-66
2023/06/17 05:02:00;;;;;;;5.22;3.83;;;16.00;99.90;;;;;;6105910;23;20105;-65
2023/06/17 05:04:25;;;;;;;6.05;4.07;;;16.10;99.90;;;;;;6108621;23;20010;-65
2023/06/17 05:06:51;;;;;;;5.03;4.53;;;16.10;99.90;;;;;;6108612;23;20010;-68
2023/06/17 05:09:17;;;;;;;4.47;4.07;;;16.20;99.90;;;;;;6105536;23;20002;-68
2023/06/17 05:11:42;;;;;;;6.32;4.18;;;16.30;99.90;;;;;;6107933;23;20010;-67
2023/06/17 05:14:09;;;;;;;4.88;4.38;;;16.40;99.90;;;;;;6082164;23;20014;-67
2023/06/17 05:16:35;;;;;;;6.35;3.88;;;16.40;99.90;;;;;;6109786;23;20093;-72
2023/06/17 05:19:00;;;;;;;4.63;4.07;;;16.50;99.90;;;;;;6109651;23;20400;-67
2023/06/17 05:21:26;;;;;;;4.30;3.92;;;16.60;99.90;;;;;;6107975;23;20021;-67
2023/06/17 05:23:51;;;;;;;6.45;4.60;;;16.70;99.90;;;;;;6111420;23;20620;-66
2023/06/17 05:26:17;;;;;;;4.85;4.28;;;16.80;99.90;;;;;;6109667;23;20017;-65
2023/06/17 05:28:43;;;;;;;8.18;4.38;;;16.90;99.90;;;;;;6110595;23;20009;-66
2023/06/17 05:31:09;;;;;;;4.32;3.92;;;17.00;99.90;;;;;;6107503;23;20486;-66
2023/06/17 05:33:35;;;;;;;8.60;4.10;;;17.10;99.90;;;;;;6104395;23;20372;-66
2023/06/17 05:36:01;;;;;;;5.95;4.18;;;17.10;99.90;;;;;;6105593;23;20006;-66
2023/06/17 05:38:27;;;;;;;7.18;4.55;;;17.30;99.90;;;;;;6106827;23;20064;-66
2023/06/17 05:40:53;;;;;;;4.72;4.22;;;17.40;99.90;;;;;;6108150;23;20021;-69
2023/06/17 05:43:19;;;;;;;4.70;3.97;;;17.50;99.90;;;;;;6107896;23;20006;-67
2023/06/17 05:45:45;;;;;;;7.05;4.15;;;17.50;99.90;;;;;;6107864;23;20475;-67
2023/06/17 05:48:10;;;;;;;4.97;3.83;;;17.60;99.90;;;;;;6110943;23;20376;-68
2023/06/17 05:50:36;;;;;;;5.63;3.90;;;17.70;99.90;;;;;;6079610;23;20010;-69
2023/06/17 05:53:02;;;;;;;5.15;3.75;;;17.80;99.90;;;;;;6110012;23;20092;-69
2023/06/17 05:55:28;;;;;;;3.90;3.60;;;17.90;99.90;;;;;;6084166;23;20017;-68
2023/06/17 05:57:54;;;;;;;3.90;3.50;;;18.00;99.90;;;;;;6109868;23;20757;-66
2023/06/17 06:00:22;;;;;;;4.30;3.85;;;18.10;99.90;;;;;;6085057;23;20043;-66
2023/06/17 06:02:48;;;;;;;4.20;3.80;;;18.20;99.90;;;;;;6109203;23;20613;-66
2023/06/17 06:05:13;;;;;;;4.47;3.78;;;18.20;99.90;;;;;;6110312;23;20037;-66
2023/06/17 06:07:41;;;;;;;4.03;3.60;;;18.40;99.90;;;;;;6110230;23;20040;-66
2023/06/17 06:10:07;;;;;;;4.38;3.97;;;18.50;99.90;;;;;;6112237;23;20344;-66
2023/06/17 06:12:33;;;;;;;4.45;3.70;;;18.60;99.90;;;;;;6109403;23;20002;-66
2023/06/17 06:14:58;;;;;;;5.13;3.78;;;18.60;99.90;;;;;;6112257;23;20006;-66
2023/06/17 06:17:24;;;;;;;5.10;4.18;;;18.60;99.90;;;;;;6111261;23;20010;-65
2023/06/17 06:19:51;;;;;;;4.00;3.60;;;18.60;99.90;;;;;;6110693;23;20340;-66
2023/06/17 06:22:17;;;;;;;4.65;3.95;;;18.60;99.90;;;;;;6112939;23;20037;-66
2023/06/17 06:24:43;;;;;;;4.45;3.65;;;18.70;99.90;;;;;;6110542;23;20002;-66
2023/06/17 06:27:08;;;;;;;5.18;3.63;;;18.70;99.90;;;;;;6110016;23;20431;-66
2023/06/17 06:29:34;;;;;;;4.45;3.97;;;18.70;99.90;;;;;;6113686;23;20056;-66
2023/06/17 06:32:00;;;;;;;3.65;3.35;;;18.80;99.90;;;;;;6109678;23;20522;-66
2023/06/17 06:34:26;;;;;;;4.35;3.95;;;18.90;99.90;;;;;;6107922;23;20769;-66
2023/06/17 06:36:51;;;;;;;5.30;3.53;;;19.00;99.90;;;;;;6104498;23;20085;-66
2023/06/17 06:39:17;;;;;;;5.80;3.15;;;19.00;99.90;;;;;;6109550;23;20006;-66
2023/06/17 06:41:43;;;;;;;4.35;3.83;;;19.20;99.90;;;;;;6111105;23;20018;-66
2023/06/17 06:44:08;;;;;;;5.63;3.63;;;19.20;99.90;;;;;;6111755;23;20067;-66
2023/06/17 06:46:34;;;;;;;4.38;3.65;;;19.40;99.90;;;;;;6112588;23;20088;-65
2023/06/17 06:49:00;;;;;;;3.90;3.55;;;19.60;99.90;;;;;;6111928;23;20132;-65
2023/06/17 06:51:25;;;;;;;4.30;3.90;;;19.60;99.90;;;;;;6110353;23;20526;-66
2023/06/17 06:53:51;;;;;;;3.33;3.13;;;19.70;99.90;;;;;;6109098;23;20052;-66
2023/06/17 06:56:17;;;;;;;4.10;3.70;;;19.80;99.90;;;;;;6110151;23;20010;-66
2023/06/17 06:58:43;;;;;;;3.70;3.40;;;19.90;99.90;;;;;;6111394;23;20069;-66
2023/06/17 07:01:09;;;;;;;5.30;3.47;;;19.90;99.90;;;;;;6104475;23;20292;-65
2023/06/17 07:03:35;;;;;;;6.00;3.30;;;19.90;99.90;;;;;;6109932;23;20388;-65
2023/06/17 07:06:00;;;;;;;3.22;2.95;;;20.10;99.90;;;;;;6110238;23;20700;-66
2023/06/17 07:08:26;;;;;;;4.10;3.25;;;20.20;99.90;;;;;;6109308;23;20777;-66
2023/06/17 07:10:52;;;;;;;3.58;3.28;;;20.40;99.90;;;;;;6112880;23;20002;-64
2023/06/17 07:13:17;;;;;;;3.65;3.22;;;20.50;99.90;;;;;;6111414;23;20010;-65
2023/06/17 07:15:46;;;;;;;4.22;3.17;;;20.60;99.90;;;;;;6117663;23;20006;-69
2023/06/17 07:18:12;;;;;;;3.53;3.22;;;20.70;99.90;;;;;;6114324;23;20006;-69
2023/06/17 07:20:38;;;;;;;4.57;3.35;;;20.90;99.90;;;;;;6116446;23;20017;-69
2023/06/17 07:23:04;;;;;;;5.07;3.30;;;21.00;99.90;;;;;;6117314;23;20018;-69
2023/06/17 07:25:30;;;;;;;2.75;2.55;;;21.20;99.90;;;;;;6116637;23;20428;-68
2023/06/17 07:28:02;;;;;;;3.20;2.60;;;21.30;99.90;;;;;;6116186;23;20006;-68
2023/06/17 07:30:28;;;;;;;3.65;3.33;;;21.20;99.90;;;;;;6118612;23;20024;-68
2023/06/17 07:32:54;;;;;;;3.30;3.03;;;21.20;99.90;;;;;;6114341;23;20332;-66
2023/06/17 07:35:20;;;;;;;3.10;2.80;;;21.30;99.90;;;;;;6108874;23;20005;-61
2023/06/17 07:37:45;;;;;;;2.80;2.50;;;21.30;99.90;;;;;;6112749;23;20502;-61
2023/06/17 07:40:11;;;;;;;4.95;3.13;;;21.30;99.90;;;;;;6111620;23;20012;-62
2023/06/17 07:42:38;;;;;;;3.83;2.58;;;21.30;99.90;;;;;;6109259;23;20013;-62
2023/06/17 07:45:06;;;;;;;3.22;2.75;;;21.40;99.90;;;;;;6109967;23;20006;-61
2023/06/17 07:47:32;;;;;;;5.13;2.60;;;21.40;99.90;;;;;;6110885;23;20032;-65
2023/06/17 07:49:58;;;;;;;2.72;2.50;;;21.40;99.90;;;;;;6110477;23;20029;-70
2023/06/17 07:52:23;;;;;;;3.50;2.83;;;21.40;99.90;;;;;;6122342;23;20440;-68
2023/06/17 07:54:51;;;;;;;15.15;2.67;;;21.40;99.90;;;;;;6122112;23;20356;-69
2023/06/17 07:57:16;;;;;;;15.80;3.75;;;21.50;99.90;;;;;;6120246;23;20034;-69
2023/06/17 07:59:42;;;;;;;9.45;3.35;;;21.50;99.90;;;;;;6120716;23;20032;-69
2023/06/17 08:02:08;;;;;;;4.22;2.72;;;21.60;99.90;;;;;;6113599;23;20128;-69
2023/06/17 08:04:33;;;;;;;2.83;2.42;;;21.60;99.90;;;;;;6119667;23;20009;-69
2023/06/17 08:06:59;;;;;;;3.83;2.72;;;21.70;99.90;;;;;;6118918;23;20010;-69
2023/06/17 08:09:25;;;;;;;4.05;2.90;;;21.80;99.90;;;;;;6118339;23;20005;-68
2023/06/17 08:11:50;;;;;;;3.85;2.72;;;22.00;99.90;;;;;;6120436;23;20005;-69
2023/06/17 08:14:16;;;;;;;4.30;2.72;;;22.10;99.90;;;;;;6118736;23;20033;-69
2023/06/17 08:16:45;;;;;;;17.58;2.90;;;22.20;99.90;;;;;;6119477;23;20056;-68
2023/06/17 08:19:12;;;;;;;4.00;2.60;;;22.30;99.90;;;;;;6110400;23;20017;-69
2023/06/17 08:21:38;;;;;;;4.07;2.78;;;22.40;99.90;;;;;;6110756;23;20018;-69
2023/06/17 08:24:26;;;;;;;3.00;2.67;;;22.50;99.90;;;;;;6110175;23;20069;-69
2023/06/17 08:26:53;;;;;;;2.90;2.28;;;22.60;99.90;;;;;;6112827;23;20010;-69
2023/06/17 08:29:20;;;;;;;2.78;2.17;;;22.60;99.90;;;;;;6088494;23;20660;-69
2023/06/17 08:31:48;;;;;;;6.32;2.45;;;22.30;99.90;;;;;;6116357;23;20045;-68
2023/06/17 08:34:14;;;;;;;2.90;2.47;;;22.40;99.90;;;;;;6115349;23;20080;-69
2023/06/17 08:36:42;;;;;;;3.08;2.33;;;22.50;99.90;;;;;;6113381;23;20466;-69
2023/06/17 08:39:09;;;;;;;7.20;2.45;;;22.70;99.90;;;;;;6111573;23;20014;-69
2023/06/17 08:41:41;;;;;;;3.08;2.08;;;22.80;99.90;;;;;;6110591;23;20022;-69
2023/06/17 08:44:09;;;;;;;2.35;2.15;;;22.90;99.90;;;;;;6110273;23;20078;-69
2023/06/17 08:46:36;;;;;;;3.15;2.40;;;23.00;99.90;;;;;;6105946;23;20010;-66
2023/06/17 08:49:02;;;;;;;2.60;2.40;;;22.90;99.90;;;;;;6108442;23;20018;-66
2023/06/17 08:51:29;;;;;;;5.10;2.33;;;22.90;99.90;;;;;;6108864;23;20018;-65
2023/06/17 08:53:55;;;;;;;3.80;2.50;;;22.90;99.90;;;;;;6103826;23;20017;-66
2023/06/17 08:56:21;;;;;;;3.20;2.30;;;22.90;99.90;;;;;;6108493;23;20034;-66
2023/06/17 08:58:47;;;;;;;4.82;2.70;;;22.60;99.90;;;;;;6109780;23;20006;-66
2023/06/17 09:01:14;;;;;;;2.55;2.35;;;22.50;99.90;;;;;;6110963;23;20014;-66
2023/06/17 09:03:44;;;;;;;2.88;2.28;;;22.40;99.90;;;;;;6113323;23;20009;-66
2023/06/17 09:06:27;;;;;;;2.67;2.47;;;22.30;99.90;;;;;;6110765;23;20016;-69
2023/06/17 09:08:54;;;;;;;3.05;2.33;;;22.20;99.90;;;;;;6114516;23;20490;-68
2023/06/17 09:11:30;;;;;;;2.70;2.35;;;22.10;99.90;;;;;;6113903;23;20006;-68
2023/06/17 09:14:00;;;;;;;6.15;2.55;;;22.10;99.90;;;;;;6114025;23;20002;-69
2023/06/17 09:16:29;;;;;;;2.42;2.22;;;22.10;99.90;;;;;;6112677;23;20010;-68
2023/06/17 09:19:00;;;;;;;4.10;2.88;;;22.10;99.90;;;;;;6112411;23;20683;-69
2023/06/17 09:21:27;;;;;;;3.53;2.60;;;22.10;99.90;;;;;;6109831;23;20017;-68
2023/06/17 09:23:57;;;;;;;2.50;2.30;;;22.10;99.90;;;;;;6114253;23;19998;-70
2023/06/17 09:26:25;;;;;;;2.50;2.30;;;22.00;99.90;;;;;;6113565;23;20010;-70
2023/06/17 09:28:51;;;;;;;4.38;2.50;;;22.00;99.90;;;;;;6115877;23;20013;-68
2023/06/17 09:31:21;;;;;;;4.50;2.45;;;21.90;99.90;;;;;;6112533;23;20113;-69
2023/06/17 09:33:46;;;;;;;2.60;2.40;;;21.90;99.90;;;;;;6113843;23;20001;-67
2023/06/17 09:36:12;;;;;;;2.63;2.42;;;22.00;99.90;;;;;;6109851;23;20069;-68
2023/06/17 09:38:38;;;;;;;2.53;2.33;;;22.10;99.90;;;;;;6112976;23;20115;-67
2023/06/17 09:41:05;;;;;;;2.97;2.78;;;22.20;99.90;;;;;;6114010;23;20424;-68
2023/06/17 09:43:30;;;;;;;2.60;2.40;;;22.20;99.90;;;;;;6086813;23;20721;-67
2023/06/17 09:46:02;;;;;;;2.30;2.10;;;22.20;99.90;;;;;;6110621;23;20117;-69
2023/06/17 09:48:37;;;;;;;2.55;2.35;;;22.30;99.90;;;;;;6102389;23;20041;-70
2023/06/17 09:51:09;;;;;;;3.50;2.65;;;22.40;99.90;;;;;;6110619;23;20034;-68
2023/06/17 09:53:35;;;;;;;2.80;2.35;;;22.50;99.90;;;;;;6111358;23;20719;-67
2023/06/17 09:56:02;;;;;;;8.75;2.70;;;22.60;99.90;;;;;;6110949;23;20032;-67
2023/06/17 09:58:30;;;;;;;2.90;2.22;;;22.70;99.90;;;;;;6106481;23;20030;-67
2023/06/17 10:01:00;;;;;;;8.68;2.50;;;22.70;99.90;;;;;;6107235;23;20492;-68
2023/06/17 10:03:27;;;;;;;2.40;2.20;;;22.60;99.90;;;;;;6111095;23;20010;-67
2023/06/17 10:05:59;;;;;;;5.20;2.42;;;22.60;99.90;;;;;;6111504;23;20017;-67
2023/06/17 10:08:26;;;;;;;2.38;2.20;;;22.60;99.90;;;;;;6108863;23;20010;-68
2023/06/17 10:10:55;;;;;;;2.25;2.10;;;22.50;99.90;;;;;;6109743;23;20002;-67
2023/06/17 10:13:21;;;;;;;4.18;2.38;;;22.50;99.90;;;;;;6112038;23;20014;-68
2023/06/17 10:15:48;;;;;;;3.50;2.42;;;22.60;99.90;;;;;;6111959;23;20017;-67
2023/06/17 10:18:15;;;;;;;2.63;2.17;;;22.70;99.90;;;;;;6107853;23;20377;-67
2023/06/17 10:20:42;;;;;;;14.35;2.15;;;22.80;99.90;;;;;;6109679;23;20009;-67
2023/06/17 10:23:08;;;;;;;2.33;2.00;;;22.90;99.90;;;;;;6108229;23;20036;-68
2023/06/17 10:25:36;;;;;;;2.65;2.20;;;23.00;99.90;;;;;;6112015;23;20005;-67
2023/06/17 10:28:05;;;;;;;2.30;2.10;;;23.10;99.90;;;;;;6110580;23;20850;-69
2023/06/17 10:30:31;;;;;;;5.15;2.35;;;23.20;99.90;;;;;;6110927;23;20009;-68
2023/06/17 10:32:59;;;;;;;3.05;2.28;;;23.20;99.90;;;;;;6109250;23;20010;-67
2023/06/17 10:35:44;;;;;;;3.80;2.50;;;23.30;99.90;;;;;;6110509;23;20013;-64
2023/06/17 10:38:26;;;;;;;2.72;2.22;;;23.10;99.90;;;;;;6108756;23;20153;-67
2023/06/17 10:40:52;;;;;;;4.03;2.65;;;23.00;99.90;;;;;;6110836;23;20010;-67
2023/06/17 10:43:19;;;;;;;3.75;2.63;;;22.90;99.90;;;;;;6108642;23;20024;-66
2023/06/17 10:45:50;;;;;;;2.60;2.40;;;22.80;99.90;;;;;;6105478;23;20021;-68
2023/06/17 10:48:20;;;;;;;3.97;2.80;;;22.90;99.90;;;;;;6107918;23;20072;-68
2023/06/17 10:50:57;;;;;;;4.07;2.45;;;22.90;99.90;;;;;;6109925;23;20430;-69
2023/06/17 10:53:31;;;;;;;4.25;2.42;;;22.90;99.90;;;;;;6106261;23;20725;-68
2023/06/17 10:55:59;;;;;;;3.80;2.40;;;23.10;99.90;;;;;;6110842;23;20220;-69
2023/06/17 10:58:34;;;;;;;2.47;2.20;;;23.10;99.90;;;;;;6106533;23;20710;-69
2023/06/17 11:01:04;;;;;;;3.50;1.88;;;23.20;99.90;;;;;;6099134;23;20088;-69
2023/06/17 11:03:30;;;;;;;2.63;2.30;;;23.40;99.90;;;;;;6108783;23;20005;-68
2023/06/17 11:06:03;;;;;;;2.92;2.30;;;23.40;99.90;;;;;;6106970;23;20247;-69
2023/06/17 11:08:31;;;;;;;2.67;2.47;;;23.20;99.90;;;;;;6109878;23;20794;-69
2023/06/17 11:11:16;;;;;;;3.83;2.20;;;23.20;99.90;;;;;;6107293;23;20646;-67
2023/06/17 11:13:43;;;;;;;3.75;2.50;;;23.20;99.90;;;;;;6103831;23;20092;-68
2023/06/17 11:16:10;;;;;;;2.88;2.45;;;23.20;99.90;;;;;;6107906;23;20056;-68
2023/06/17 11:18:43;;;;;;;2.88;2.63;;;23.20;99.90;;;;;;6106216;23;20009;-68
2023/06/17 11:21:09;;;;;;;5.53;2.60;;;23.30;99.90;;;;;;6108623;23;20067;-67
2023/06/17 11:23:38;;;;;;;4.38;2.40;;;23.40;99.90;;;;;;6110100;23;20017;-69
2023/06/17 11:26:05;;;;;;;2.70;2.10;;;23.70;99.90;;;;;;6109950;23;20072;-69
2023/06/17 11:28:32;;;;;;;4.60;2.25;;;23.80;99.90;;;;;;6108410;23;20101;-69
2023/06/17 11:30:57;;;;;;;2.78;2.08;;;23.80;99.90;;;;;;6110450;23;20008;-70
2023/06/17 11:33:23;;;;;;;2.38;2.17;;;23.80;99.90;;;;;;6109779;23;20010;-69
2023/06/17 11:35:55;;;;;;;2.50;2.13;;;23.80;99.90;;;;;;6102258;23;20857;-71
2023/06/17 11:38:22;;;;;;;2.38;2.17;;;23.80;99.90;;;;;;6102410;23;20017;-69
2023/06/17 11:40:56;;;;;;;3.85;2.33;;;23.90;99.90;;;;;;6106854;23;20010;-69
2023/06/17 11:43:26;;;;;;;3.80;2.58;;;23.90;99.90;;;;;;6109634;23;20014;-69
2023/06/17 11:45:56;;;;;;;4.00;2.30;;;23.90;99.90;;;;;;6107250;23;20025;-72
2023/06/17 11:48:43;;;;;;;2.53;2.25;;;24.00;99.90;;;;;;6110534;23;20576;-71
2023/06/17 11:51:16;;;;;;;3.38;2.08;;;24.10;99.90;;;;;;6110622;23;20069;-69
2023/06/17 11:53:45;;;;;;;2.88;2.22;;;24.30;99.90;;;;;;6107988;23;20006;-69
2023/06/17 11:56:13;;;;;;;2.92;2.28;;;24.40;99.90;;;;;;6085126;23;20012;-74
2023/06/17 11:58:41;;;;;;;4.47;2.20;;;24.40;99.90;;;;;;6110217;23;20005;-80
2023/06/17 12:01:08;;;;;;;4.32;2.10;;;24.50;99.90;;;;;;6106623;23;20089;-85
2023/06/17 12:03:35;;;;;;;1.95;1.85;;;24.50;99.90;;;;;;6104609;23;20010;-75
2023/06/17 12:06:01;;;;;;;2.78;1.90;;;24.50;99.90;;;;;;6105577;23;20636;-75
2023/06/17 12:08:34;;;;;;;4.13;2.22;;;24.40;99.90;;;;;;6105579;23;20551;-65
2023/06/17 12:11:07;;;;;;;2.50;2.28;;;24.20;99.90;;;;;;6105759;23;20036;-65
2023/06/17 12:13:39;;;;;;;2.90;1.90;;;23.90;99.90;;;;;;6105113;23;20010;-65
2023/06/17 12:16:23;;;;;;;2.97;1.98;;;23.60;99.90;;;;;;6101012;23;19998;-64
2023/06/17 12:18:50;;;;;;;3.95;1.95;;;23.70;99.90;;;;;;6104367;23;20010;-64
2023/06/17 12:21:16;;;;;;;3.58;1.83;;;23.90;99.90;;;;;;6106214;23;20423;-65
2023/06/17 12:23:41;;;;;;;3.90;2.08;;;24.10;99.90;;;;;;6106515;23;20013;-70
2023/06/17 12:26:07;;;;;;;2.53;2.00;;;24.10;99.90;;;;;;6105837;23;20064;-70
2023/06/17 12:28:32;;;;;;;2.15;2.05;;;24.20;99.90;;;;;;6107221;23;20013;-69
2023/06/17 12:30:58;;;;;;;2.63;1.83;;;24.30;99.90;;;;;;6105115;23;20020;-70
2023/06/17 12:33:23;;;;;;;2.03;1.92;;;24.30;99.90;;;;;;6108346;23;20006;-71
2023/06/17 12:35:51;;;;;;;3.33;2.28;;;24.30;99.90;;;;;;6106621;23;20010;-70
2023/06/17 12:38:17;;;;;;;2.30;2.10;;;24.30;99.90;;;;;;6109139;23;20440;-70
2023/06/17 12:40:43;;;;;;;2.78;2.08;;;24.30;99.90;;;;;;6108274;23;20017;-70
2023/06/17 12:43:09;;;;;;;2.25;1.90;;;24.40;99.90;;;;;;6109789;23;20068;-70
2023/06/17 12:45:35;;;;;;;2.50;2.30;;;24.20;99.90;;;;;;6107914;23;20010;-70
2023/06/17 12:48:03;;;;;;;3.05;1.85;;;24.20;99.90;;;;;;6109204;23;20504;-70
2023/06/17 12:50:28;;;;;;;2.35;1.75;;;24.10;99.90;;;;;;6109876;23;20013;-70